Time,TemperatureF,DewpointF,PressureIn,WindDirection,WindDirectionDegrees,WindSpeedMPH,WindSpeedGustMPH,Humidity,HourlyPrecipIn,Conditions,Clouds,dailyrainin,SoftwareType,DateUTC
2013-07-06 00:13:00,78.1,74.0,30.08,South,174,6.0,-999.0,86,-99.99,,,0.01,weatherlink.com 1.10,2013-07-06 04:13:00,
2013-07-06 00:27:00,78.0,74.0,30.08,SSE,165,6.0,-999.0,86,-99.99,,,0.01,weatherlink.com 1.10,2013-07-06 04:27:00,
2013-07-06 00:42:00,77.9,74.0,30.08,South,176,0.0,-999.0,86,-99.99,,,0.00,weatherlink.com 1.10,2013-07-06 04:42:00,
2013-07-06 00:57:00,77.7,74.0,30.08,SSW,194,1.0,-999.0,87,-99.99,,,0.00,weatherlink.com 1.10,2013-07-06 04:57:00,
2013-07-06 01:12:00,77.6,74.0,30.08,South,171,8.0,-999.0,87,-99.99,,,0.00,weatherlink.com 1.10,2013-07-06 05:12:00,
2013-07-06 01:28:00,77.4,73.0,30.07,SSE,161,7.0,-999.0,87,-99.99,,,0.00,weatherlink.com 1.10,2013-07-06 05:28:00,
2013-07-06 01:43:00,77.3,74.0,30.07,South,172,7.0,-999.0,88,-99.99,,,0.00,weatherlink.com 1.10,2013-07-06 05:43:00,
2013-07-06 01:58:00,77.0,73.0,30.06,South,185,3.0,-999.0,88,-99.99,,,0.00,weatherlink.com 1.10,2013-07-06 05:58:00,
2013-07-06 02:13:00,76.8,73.0,30.06,South,180,5.0,-999.0,89,-99.99,,,0.00,weatherlink.com 1.10,2013-07-06 06:13:00,
2013-07-06 02:28:00,76.6,73.0,30.05,SSE,155,4.0,-999.0,89,-99.99,,,0.00,weatherlink.com 1.10,2013-07-06 06:28:00,
2013-07-06 02:43:00,76.4,73.0,30.05,South,174,1.0,-999.0,89,-99.99,,,0.00,weatherlink.com 1.10,2013-07-06 06:43:00,
2013-07-06 02:58:00,76.2,73.0,30.04,SSE,156,4.0,-999.0,90,-99.99,,,0.00,weatherlink.com 1.10,2013-07-06 06:58:00,
2013-07-06 03:14:00,75.9,73.0,30.04,South,180,4.0,-999.0,90,-99.99,,,0.00,weatherlink.com 1.10,2013-07-06 07:14:00,
2013-07-06 03:29:00,75.7,73.0,30.04,South,182,2.0,-999.0,91,-99.99,,,0.00,weatherlink.com 1.10,2013-07-06 07:29:00,
2013-07-06 03:44:00,75.6,73.0,30.04,SSE,155,4.0,-999.0,92,-99.99,,,0.00,weatherlink.com 1.10,2013-07-06 07:44:00,
2013-07-06 03:59:00,75.5,73.0,30.03,SSW,198,4.0,-999.0,92,-99.99,,,0.00,weatherlink.com 1.10,2013-07-06 07:59:00,
2013-07-06 04:14:00,75.4,73.0,30.04,SSE,148,2.0,-999.0,92,-99.99,,,0.00,weatherlink.com 1.10,2013-07-06 08:14:00,
2013-07-06 04:29:00,75.3,73.0,30.04,SE,128,4.0,-999.0,92,-99.99,,,0.00,weatherlink.com 1.10,2013-07-06 08:29:00,
2013-07-06 04:44:00,75.1,73.0,30.04,SE,141,1.0,-999.0,92,-99.99,,,0.00,weatherlink.com 1.10,2013-07-06 08:44:00,
2013-07-06 04:59:00,75.1,73.0,30.04,SE,128,4.0,-999.0,92,-99.99,,,0.00,weatherlink.com 1.10,2013-07-06 08:59:00,
2013-07-06 05:14:00,75.0,73.0,30.04,SE,129,2.0,-999.0,92,-99.99,,,0.00,weatherlink.com 1.10,2013-07-06 09:14:00,
2013-07-06 05:29:00,75.0,73.0,30.04,SE,137,4.0,-999.0,93,-99.99,,,0.00,weatherlink.com 1.10,2013-07-06 09:29:00,
2013-07-06 05:44:00,74.9,73.0,30.04,SE,136,1.0,-999.0,93,-99.99,,,0.00,weatherlink.com 1.10,2013-07-06 09:44:00,
2013-07-06 05:59:00,74.8,73.0,30.04,SE,136,2.0,-999.0,93,-99.99,,,0.00,weatherlink.com 1.10,2013-07-06 09:59:00,
2013-07-06 06:14:00,74.7,73.0,30.04,SE,128,2.0,-999.0,93,-99.99,,,0.00,weatherlink.com 1.10,2013-07-06 10:14:00,
2013-07-06 06:29:00,74.6,73.0,30.04,SE,128,4.0,-999.0,93,-99.99,,,0.00,weatherlink.com 1.10,2013-07-06 10:29:00,
2013-07-06 06:44:00,74.6,73.0,30.04,SE,126,2.0,-999.0,93,-99.99,,,0.00,weatherlink.com 1.10,2013-07-06 10:44:00,
2013-07-06 06:59:00,-999.0,-99.9,30.04,North,-999,-999.0,-999.0,-999,-99.99,,,0.00,weatherlink.com 1.10,2013-07-06 10:59:00,
2013-07-06 07:14:00,-999.0,-99.9,30.04,North,-999,-999.0,-999.0,-999,-99.99,,,0.00,weatherlink.com 1.10,2013-07-06 11:14:00,
2013-07-06 07:29:00,-999.0,-99.9,30.05,North,-999,-999.0,-999.0,-999,-99.99,,,0.00,weatherlink.com 1.10,2013-07-06 11:29:00,
2013-07-06 07:46:00,-999.0,-99.9,30.05,North,-999,-999.0,-999.0,-999,-99.99,,,0.00,weatherlink.com 1.10,2013-07-06 11:46:00,
2013-07-06 08:03:00,-999.0,-99.9,30.06,North,-999,-999.0,-999.0,-999,-99.99,,,0.00,weatherlink.com 1.10,2013-07-06 12:03:00,
2013-07-06 08:20:00,79.2,72.0,30.06,ESE,119,4.0,-999.0,79,-99.99,,,0.00,weatherlink.com 1.10,2013-07-06 12:20:00,
2013-07-06 08:37:00,79.9,73.0,30.06,ESE,109,5.0,-999.0,78,-99.99,,,0.00,weatherlink.com 1.10,2013-07-06 12:37:00,
2013-07-06 08:53:00,80.7,72.0,30.07,SE,130,0.0,-999.0,75,-99.99,,,0.00,weatherlink.com 1.10,2013-07-06 12:53:00,
2013-07-06 09:09:00,81.8,72.0,30.07,SE,132,8.0,-999.0,72,-99.99,,,0.00,weatherlink.com 1.10,2013-07-06 13:09:00,
2013-07-06 09:26:00,83.0,72.0,30.07,ENE,76,5.0,-999.0,70,-99.99,,,0.00,weatherlink.com 1.10,2013-07-06 13:26:00,
2013-07-06 09:42:00,82.4,71.0,30.07,East,101,5.0,-999.0,68,-99.99,,,0.00,weatherlink.com 1.10,2013-07-06 13:42:00,
2013-07-06 09:59:00,83.8,71.0,30.07,ESE,103,7.0,-999.0,65,-99.99,,,0.00,weatherlink.com 1.10,2013-07-06 13:59:00,
2013-07-06 10:16:00,84.0,71.0,30.07,East,79,8.0,-999.0,65,-99.99,,,0.00,weatherlink.com 1.10,2013-07-06 14:16:00,
2013-07-06 10:31:00,84.0,70.0,30.07,SE,138,4.0,-999.0,63,-99.99,,,0.00,weatherlink.com 1.10,2013-07-06 14:31:00,
2013-07-06 10:49:00,84.7,70.0,30.07,ESE,117,4.0,-999.0,61,-99.99,,,0.00,weatherlink.com 1.10,2013-07-06 14:49:00,
2013-07-06 11:05:00,84.9,70.0,30.07,SSE,148,6.0,-999.0,62,-99.99,,,0.01,weatherlink.com 1.10,2013-07-06 15:05:00,
2013-07-06 11:21:00,84.3,70.0,30.07,South,169,7.0,-999.0,62,-99.99,,,0.01,weatherlink.com 1.10,2013-07-06 15:21:00,
2013-07-06 11:37:00,84.9,70.0,30.08,ESE,106,6.0,-999.0,62,-99.99,,,0.01,weatherlink.com 1.10,2013-07-06 15:37:00,
2013-07-06 11:54:00,85.5,69.0,30.08,SE,140,17.0,-999.0,58,-99.99,,,0.01,weatherlink.com 1.10,2013-07-06 15:54:00,
2013-07-06 12:10:00,86.3,69.0,30.07,East,85,6.0,-999.0,56,-99.99,,,0.01,weatherlink.com 1.10,2013-07-06 16:10:00,
2013-07-06 12:27:00,87.0,70.0,30.07,East,94,11.0,-999.0,57,-99.99,,,0.01,weatherlink.com 1.10,2013-07-06 16:27:00,
2013-07-06 12:43:00,86.3,70.0,30.06,East,92,5.0,-999.0,59,-99.99,,,0.01,weatherlink.com 1.10,2013-07-06 16:43:00,
2013-07-06 13:00:00,86.5,69.0,30.06,East,93,6.0,-999.0,57,-99.99,,,0.03,weatherlink.com 1.10,2013-07-06 17:00:00,
2013-07-06 13:16:00,87.2,70.0,30.06,ENE,78,3.0,-999.0,56,-99.99,,,0.12,weatherlink.com 1.10,2013-07-06 17:16:00,
2013-07-06 13:32:00,87.0,68.0,30.05,SSE,153,5.0,-999.0,54,-99.99,,,0.18,weatherlink.com 1.10,2013-07-06 17:32:00,
2013-07-06 14:05:00,88.0,69.0,30.04,East,86,17.0,-999.0,53,-99.99,,,0.28,weatherlink.com 1.10,2013-07-06 18:05:00,
2013-07-06 14:21:00,88.4,69.0,30.04,East,84,8.0,-999.0,53,-99.99,,,0.37,weatherlink.com 1.10,2013-07-06 18:21:00,
2013-07-06 14:55:00,86.7,70.0,30.04,SSE,153,10.0,-999.0,57,-99.99,,,0.65,weatherlink.com 1.10,2013-07-06 18:55:00,
2013-07-06 15:28:00,85.5,70.0,30.03,South,179,7.0,-999.0,60,-99.99,,,0.95,weatherlink.com 1.10,2013-07-06 19:28:00,
2013-07-06 15:44:00,86.5,69.0,30.03,South,188,14.0,-999.0,57,-99.99,,,1.05,weatherlink.com 1.10,2013-07-06 19:44:00,
2013-07-06 16:49:00,84.9,70.0,30.02,ESE,109,0.0,-999.0,62,-99.99,,,1.30,weatherlink.com 1.10,2013-07-06 20:49:00,
2013-07-06 17:06:00,86.3,70.0,30.01,East,96,4.0,-999.0,58,-99.99,,,1.34,weatherlink.com 1.10,2013-07-06 21:06:00,
2013-07-06 17:22:00,87.2,69.0,30.01,ESE,111,14.0,-999.0,54,-99.99,,,1.47,weatherlink.com 1.10,2013-07-06 21:22:00,
2013-07-06 17:40:00,87.2,69.0,30.00,SE,138,12.0,-999.0,54,-99.99,,,1.64,weatherlink.com 1.10,2013-07-06 21:40:00,
2013-07-06 18:29:00,86.5,70.0,30.01,SE,129,11.0,-999.0,58,-99.99,,,2.01,weatherlink.com 1.10,2013-07-06 22:29:00,
2013-07-06 19:01:00,84.7,70.0,30.01,ESE,116,11.0,-999.0,62,-99.99,,,2.27,weatherlink.com 1.10,2013-07-06 23:01:00,
2013-07-06 19:18:00,84.5,71.0,30.01,SE,128,5.0,-999.0,64,-99.99,,,2.33,weatherlink.com 1.10,2013-07-06 23:18:00,
2013-07-06 19:50:00,83.6,71.0,30.02,ENE,71,10.0,-999.0,66,-99.99,,,2.49,weatherlink.com 1.10,2013-07-06 23:50:00,
2013-07-06 20:06:00,82.5,74.0,30.02,SE,143,10.0,-999.0,75,-99.99,,,2.49,weatherlink.com 1.10,2013-07-07 00:06:00,
2013-07-06 20:56:00,81.0,74.0,30.04,SE,144,6.0,-999.0,79,-99.99,,,2.49,weatherlink.com 1.10,2013-07-07 00:56:00,
2013-07-06 21:42:00,80.2,74.0,30.05,South,181,3.0,-999.0,81,-99.99,,,2.49,weatherlink.com 1.10,2013-07-07 01:42:00,
2013-07-06 21:57:00,80.0,74.0,30.06,SE,134,7.0,-999.0,82,-99.99,,,2.49,weatherlink.com 1.10,2013-07-07 01:57:00,
2013-07-06 22:43:00,79.3,74.0,30.08,South,178,5.0,-999.0,84,-99.99,,,2.49,weatherlink.com 1.10,2013-07-07 02:43:00,
2013-07-06 22:58:00,79.1,74.0,30.08,South,180,3.0,-999.0,85,-99.99,,,2.49,weatherlink.com 1.10,2013-07-07 02:58:00,
2013-07-06 23:13:00,78.8,74.0,30.08,SSE,157,9.0,-999.0,85,-99.99,,,2.49,weatherlink.com 1.10,2013-07-07 03:13:00,
2013-07-06 23:28:00,78.6,74.0,30.08,South,171,5.0,-999.0,86,-99.99,,,2.49,weatherlink.com 1.10,2013-07-07 03:28:00,
2013-07-06 23:43:00,78.4,74.0,30.08,South,184,7.0,-999.0,86,-99.99,,,2.49,weatherlink.com 1.10,2013-07-07 03:43:00,
2013-07-06 23:58:00,78.3,74.0,30.08,SSE,155,5.0,-999.0,87,-99.99,,,2.49,weatherlink.com 1.10,2013-07-07 03:58:00,